Austin/Bergstrom AFB, Texas
Current Conditions -  °F | °C
As of 10:53 PM on Wednesday 26 Nov 2014 (Local Time) from KAUS Reporting Station
Clear Clear  
Wind Chill: 46°   Ceiling: Unl
Heat Index: 46°   Visibility: 10mi
Dew Point: 37°   Wind: 0mph
Humidity: 71%   Direction: NA
Pressure: 30.34"   Gusts: NA
Location:  30.2°N, 97.68°W
Report Text: KAUS 270453Z 00000KT 10SM CLR 08/03 A3034 RMK AO2 SLP273 T00780028
Loading
Personal Weather Stations






























Interactive Weather Map New forecast layout! Learn more

10-Day Weather Forecast

Advertisements
Track Severe Weather on mobile